Time;durP1;ratioP1;P1;durP2;ratioP2;P2;SDS_P1;SDS_P2;PMS_P1;PMS_P2;Temp;Humidity;BMP_temperature;BMP_pressure;BME280_temperature;BME280_humidity;BME280_pressure;Samples;Min_cycle;Max_cycle;Signal;HPM_P1;HPM_P2
2023/06/13 00:00:44;;;;;;;2.78;2.08;;;27.30;36.60;;;;;;5095669;28;20456;-76
2023/06/13 00:03:13;;;;;;;3.10;2.22;;;27.30;36.60;;;;;;5063265;28;20047;-76
2023/06/13 00:05:45;;;;;;;3.03;2.13;;;27.30;36.60;;;;;;5095342;28;20376;-76
2023/06/13 00:08:17;;;;;;;2.55;2.20;;;27.20;36.60;;;;;;5096928;28;20047;-77
2023/06/13 00:10:47;;;;;;;2.53;2.10;;;27.20;36.60;;;;;;5078731;28;20067;-77
2023/06/13 00:13:14;;;;;;;2.58;2.10;;;27.20;36.60;;;;;;5095121;28;20054;-77
2023/06/13 00:15:48;;;;;;;2.78;2.20;;;27.10;36.60;;;;;;5095323;28;20060;-77
2023/06/13 00:18:15;;;;;;;2.78;2.10;;;27.10;37.30;;;;;;5096272;28;20077;-78
2023/06/13 00:20:41;;;;;;;3.15;2.10;;;27.00;36.60;;;;;;5096110;28;20024;-76
2023/06/13 00:23:08;;;;;;;2.85;2.13;;;27.00;36.70;;;;;;5094750;28;20032;-78
2023/06/13 00:25:35;;;;;;;2.60;2.08;;;27.00;36.70;;;;;;5095423;28;20067;-79
2023/06/13 00:28:01;;;;;;;2.85;2.08;;;27.00;36.70;;;;;;5094719;28;20028;-77
2023/06/13 00:30:27;;;;;;;2.90;2.00;;;26.90;36.70;;;;;;5095163;28;20032;-77
2023/06/13 00:32:54;;;;;;;2.80;2.03;;;26.90;36.80;;;;;;5078211;28;20099;-76
2023/06/13 00:35:23;;;;;;;2.90;2.15;;;26.80;36.70;;;;;;5078471;28;20056;-77
2023/06/13 00:37:54;;;;;;;4.03;2.08;;;26.80;36.80;;;;;;5096164;28;20095;-76
2023/06/13 00:40:26;;;;;;;2.75;2.17;;;26.80;36.80;;;;;;5078333;28;20071;-76
2023/06/13 00:42:53;;;;;;;3.13;2.03;;;26.70;36.80;;;;;;5077651;28;20036;-78
2023/06/13 00:45:21;;;;;;;2.70;2.22;;;26.70;36.80;;;;;;5094450;28;20045;-78
2023/06/13 00:48:03;;;;;;;3.15;2.17;;;26.60;36.80;;;;;;5094550;28;20035;-77
2023/06/13 00:50:33;;;;;;;2.90;2.00;;;26.60;36.80;;;;;;5095577;28;20039;-75
2023/06/13 00:53:08;;;;;;;2.80;2.20;;;26.60;36.90;;;;;;5094557;28;20028;-77
2023/06/13 00:55:34;;;;;;;3.10;2.17;;;26.60;37.60;;;;;;5095695;28;20033;-75
2023/06/13 00:58:06;;;;;;;2.10;1.90;;;26.50;36.90;;;;;;5061994;28;20024;-78
2023/06/13 01:00:33;;;;;;;3.63;2.42;;;26.50;36.90;;;;;;5096422;28;20028;-77
2023/06/13 01:03:02;;;;;;;3.22;2.00;;;26.50;37.00;;;;;;5095124;28;20044;-75
2023/06/13 01:05:31;;;;;;;2.75;2.03;;;26.40;36.90;;;;;;5077972;28;20078;-75
2023/06/13 01:08:02;;;;;;;4.25;2.20;;;26.40;37.00;;;;;;5078053;28;20028;-76
2023/06/13 01:10:29;;;;;;;3.03;2.20;;;26.40;37.10;;;;;;5077485;28;20031;-77
2023/06/13 01:13:08;;;;;;;3.35;2.30;;;26.40;37.10;;;;;;5061416;28;20044;-77
2023/06/13 01:15:43;;;;;;;3.10;2.40;;;26.30;37.00;;;;;;5077360;28;20016;-77
2023/06/13 01:18:10;;;;;;;2.22;1.90;;;26.30;37.70;;;;;;5095629;28;20032;-77
2023/06/13 01:20:37;;;;;;;3.30;2.28;;;26.20;37.10;;;;;;5077497;28;20034;-76
2023/06/13 01:23:21;;;;;;;3.00;2.10;;;26.20;37.10;;;;;;5060543;28;20048;-76
2023/06/13 01:26:15;;;;;;;3.23;2.17;;;26.20;37.20;;;;;;5077376;28;20031;-77
2023/06/13 01:28:46;;;;;;;2.92;2.08;;;26.10;37.20;;;;;;5095397;28;20024;-76
2023/06/13 01:31:15;;;;;;;4.03;2.17;;;26.10;37.20;;;;;;5094371;28;20046;-76
2023/06/13 01:33:42;;;;;;;3.13;2.38;;;26.00;37.20;;;;;;5093813;28;20036;-78
2023/06/13 01:36:08;;;;;;;3.83;2.33;;;26.00;37.20;;;;;;5077178;28;20062;-77
2023/06/13 01:38:36;;;;;;;2.42;2.10;;;26.00;37.20;;;;;;5078354;28;20230;-77
2023/06/13 01:41:02;;;;;;;3.42;2.45;;;26.00;37.30;;;;;;5078525;28;20028;-77
2023/06/13 01:43:29;;;;;;;3.53;2.13;;;25.90;37.20;;;;;;5095834;28;20039;-76
2023/06/13 01:46:19;;;;;;;3.58;2.78;;;25.90;37.30;;;;;;5077727;28;20083;-77
2023/06/13 01:49:16;;;;;;;2.33;2.10;;;25.80;37.30;;;;;;5093586;28;20198;-76
2023/06/13 01:51:55;;;;;;;2.72;2.20;;;25.80;37.40;;;;;;5077368;28;20494;-76
2023/06/13 01:54:24;;;;;;;3.15;2.22;;;25.80;37.40;;;;;;5076374;28;20126;-75
2023/06/13 01:56:56;;;;;;;3.15;2.38;;;25.70;37.40;;;;;;5093450;28;20027;-80
2023/06/13 01:59:25;;;;;;;3.30;2.50;;;25.70;37.40;;;;;;5093793;28;20024;-78
2023/06/13 02:01:52;;;;;;;3.00;2.33;;;25.70;37.50;;;;;;5076281;28;20020;-79
2023/06/13 02:04:17;;;;;;;2.90;2.17;;;25.60;37.40;;;;;;5094486;28;20449;-76
2023/06/13 02:06:43;;;;;;;3.92;2.60;;;25.60;37.50;;;;;;5075939;28;20035;-78
2023/06/13 02:09:09;;;;;;;2.47;2.13;;;25.60;37.50;;;;;;5059843;28;20036;-77
2023/06/13 02:11:35;;;;;;;2.35;1.90;;;25.50;37.40;;;;;;5075873;28;20032;-77
2023/06/13 02:14:00;;;;;;;3.83;2.50;;;25.50;37.50;;;;;;5059287;28;20028;-80
2023/06/13 02:16:30;;;;;;;2.95;2.30;;;25.50;38.20;;;;;;5076447;28;20036;-80
2023/06/13 02:18:59;;;;;;;3.47;2.42;;;25.40;37.50;;;;;;5060024;28;20032;-78
2023/06/13 02:21:27;;;;;;;4.45;2.60;;;25.40;37.60;;;;;;5096035;28;20043;-76
2023/06/13 02:23:52;;;;;;;3.40;2.45;;;25.40;37.60;;;;;;5076924;28;20028;-78
2023/06/13 02:26:19;;;;;;;3.15;2.40;;;25.40;37.60;;;;;;5042695;28;20373;-76
2023/06/13 02:28:47;;;;;;;3.33;2.42;;;25.30;37.60;;;;;;5092681;28;20104;-77
2023/06/13 02:31:15;;;;;;;3.22;2.38;;;25.30;37.60;;;;;;5076110;28;20071;-77
2023/06/13 02:33:43;;;;;;;3.88;2.40;;;25.30;37.70;;;;;;5075707;28;20058;-75
2023/06/13 02:36:11;;;;;;;3.28;2.35;;;25.30;37.70;;;;;;5092730;28;20077;-77
2023/06/13 02:38:40;;;;;;;2.85;2.20;;;25.20;37.70;;;;;;5092277;28;20388;-77
2023/06/13 02:41:07;;;;;;;3.28;2.40;;;25.20;37.70;;;;;;5092079;28;20036;-76
2023/06/13 02:43:35;;;;;;;3.30;2.38;;;25.20;37.80;;;;;;5076074;28;20035;-76
2023/06/13 02:46:01;;;;;;;3.55;2.50;;;25.20;37.80;;;;;;5075203;28;20507;-77
2023/06/13 02:48:27;;;;;;;3.28;2.40;;;25.10;37.80;;;;;;5058796;28;20036;-75
2023/06/13 02:50:53;;;;;;;4.20;2.60;;;25.10;37.80;;;;;;5075379;28;20031;-76
2023/06/13 02:53:20;;;;;;;4.10;2.75;;;25.00;37.80;;;;;;5092605;28;20362;-76
2023/06/13 02:55:46;;;;;;;3.33;2.38;;;25.00;37.80;;;;;;5058934;28;20538;-75
2023/06/13 02:58:13;;;;;;;3.15;2.50;;;25.00;37.80;;;;;;5058923;28;20057;-75
2023/06/13 03:00:39;;;;;;;3.45;2.60;;;25.00;37.90;;;;;;5075103;28;20028;-76
2023/06/13 03:03:11;;;;;;;3.78;2.65;;;24.90;37.80;;;;;;5075824;28;20036;-76
2023/06/13 03:05:37;;;;;;;3.30;2.38;;;24.90;37.90;;;;;;5075515;28;20107;-76
2023/06/13 03:08:04;;;;;;;3.85;2.58;;;24.90;38.00;;;;;;5042561;28;20028;-76
2023/06/13 03:10:32;;;;;;;3.85;2.70;;;24.80;37.90;;;;;;5075393;28;20488;-75
2023/06/13 03:12:58;;;;;;;3.40;2.55;;;24.80;37.90;;;;;;5075651;28;20032;-78
2023/06/13 03:15:24;;;;;;;4.43;2.75;;;24.80;38.00;;;;;;5058810;28;20046;-77
2023/06/13 03:17:51;;;;;;;3.80;2.75;;;24.80;38.00;;;;;;5059416;28;20433;-77
2023/06/13 03:20:21;;;;;;;3.60;2.30;;;24.70;38.00;;;;;;5075534;28;20123;-77
2023/06/13 03:22:48;;;;;;;2.50;2.20;;;24.70;38.70;;;;;;5075367;28;20071;-77
2023/06/13 03:25:16;;;;;;;2.65;2.20;;;24.60;38.00;;;;;;5094474;28;20032;-77
2023/06/13 03:27:46;;;;;;;3.33;2.60;;;24.60;38.10;;;;;;5064789;28;20055;-77
2023/06/13 03:30:12;;;;;;;3.28;2.40;;;24.60;38.10;;;;;;5079623;28;20082;-77
2023/06/13 03:32:40;;;;;;;4.15;2.67;;;24.60;38.20;;;;;;5096181;28;20479;-77
2023/06/13 03:35:06;;;;;;;4.65;2.60;;;24.50;38.10;;;;;;5062384;28;20080;-76
2023/06/13 03:37:32;;;;;;;3.88;2.60;;;24.50;38.20;;;;;;5079332;28;20024;-76
2023/06/13 03:39:58;;;;;;;2.67;2.25;;;24.40;38.20;;;;;;5096356;28;20031;-76
2023/06/13 03:42:24;;;;;;;3.17;2.45;;;24.40;38.20;;;;;;5062415;28;20044;-77
2023/06/13 03:44:50;;;;;;;3.03;2.35;;;24.40;38.30;;;;;;5061794;28;20138;-77
2023/06/13 03:47:16;;;;;;;3.42;2.45;;;24.40;38.30;;;;;;5046035;28;20084;-75
2023/06/13 03:49:43;;;;;;;3.47;2.22;;;24.30;38.30;;;;;;5096170;28;20028;-79
2023/06/13 03:52:10;;;;;;;3.47;2.47;;;24.30;38.40;;;;;;5078714;28;20044;-77
2023/06/13 03:54:36;;;;;;;3.72;2.58;;;24.30;38.40;;;;;;5079151;28;20121;-77
2023/06/13 03:57:02;;;;;;;3.78;2.80;;;24.20;38.40;;;;;;5095853;28;20128;-77
2023/06/13 03:59:28;;;;;;;3.25;2.60;;;24.20;38.40;;;;;;5062158;28;20028;-76
2023/06/13 04:01:54;;;;;;;3.92;2.50;;;24.20;38.50;;;;;;5061991;28;20481;-78
2023/06/13 04:04:20;;;;;;;3.60;2.60;;;24.20;38.50;;;;;;5096193;28;20036;-76
2023/06/13 04:06:48;;;;;;;3.60;2.55;;;24.10;38.50;;;;;;5045192;28;20436;-78
2023/06/13 04:09:16;;;;;;;3.35;2.33;;;24.10;38.50;;;;;;5095837;28;20530;-76
2023/06/13 04:11:42;;;;;;;5.35;2.60;;;24.10;38.50;;;;;;5095268;28;20032;-77
2023/06/13 04:14:08;;;;;;;3.50;2.58;;;24.00;38.50;;;;;;5095298;28;20085;-77
2023/06/13 04:16:34;;;;;;;3.92;2.65;;;24.00;38.60;;;;;;5078963;28;20028;-77
2023/06/13 04:19:01;;;;;;;3.55;2.55;;;24.00;38.70;;;;;;5096016;28;20036;-77
2023/06/13 04:21:28;;;;;;;3.90;2.60;;;23.90;38.60;;;;;;5079184;28;20131;-77
2023/06/13 04:23:54;;;;;;;3.10;2.38;;;23.90;38.60;;;;;;5078574;28;20043;-77
2023/06/13 04:26:23;;;;;;;4.78;2.78;;;23.90;38.70;;;;;;5095189;28;20500;-77
2023/06/13 04:28:50;;;;;;;4.20;2.60;;;23.90;38.70;;;;;;5078829;28;20032;-77
2023/06/13 04:31:17;;;;;;;3.33;2.40;;;23.80;38.70;;;;;;5096324;28;20484;-77
2023/06/13 04:33:44;;;;;;;3.80;2.40;;;23.80;38.80;;;;;;5078269;28;20578;-77
2023/06/13 04:36:13;;;;;;;3.00;2.45;;;23.80;38.80;;;;;;5095432;28;20028;-77
2023/06/13 04:38:40;;;;;;;3.03;2.33;;;23.80;38.80;;;;;;5077853;28;20032;-76
2023/06/13 04:41:09;;;;;;;4.25;2.78;;;23.70;38.80;;;;;;5077533;28;20020;-79
2023/06/13 04:43:38;;;;;;;3.40;2.67;;;23.70;38.80;;;;;;5077715;28;20044;-78
2023/06/13 04:46:04;;;;;;;3.42;2.38;;;23.70;38.90;;;;;;5096161;28;20044;-77
2023/06/13 04:48:31;;;;;;;3.33;2.33;;;23.60;38.90;;;;;;5094874;28;20030;-76
2023/06/13 04:51:01;;;;;;;3.45;2.30;;;23.60;39.00;;;;;;5095368;28;20028;-76
2023/06/13 04:53:27;;;;;;;3.40;2.30;;;23.60;39.00;;;;;;5094407;28;20092;-78
2023/06/13 04:55:53;;;;;;;3.17;2.20;;;23.60;39.00;;;;;;5095098;28;20028;-77
2023/06/13 04:58:19;;;;;;;3.63;2.63;;;23.60;39.10;;;;;;5099839;28;20430;-75
2023/06/13 05:00:48;;;;;;;3.50;2.53;;;23.50;39.10;;;;;;5066938;28;20036;-78
2023/06/13 05:03:18;;;;;;;3.25;2.45;;;23.50;39.20;;;;;;5081474;28;20044;-75
2023/06/13 05:05:44;;;;;;;3.80;2.50;;;23.50;39.20;;;;;;5095966;28;20059;-75
2023/06/13 05:08:13;;;;;;;3.13;2.30;;;23.50;39.20;;;;;;5078098;28;20040;-75
2023/06/13 05:10:41;;;;;;;4.15;2.53;;;23.40;39.20;;;;;;5095535;28;20115;-77
2023/06/13 05:13:07;;;;;;;3.67;2.60;;;23.40;39.20;;;;;;5094696;28;20028;-76
2023/06/13 05:15:33;;;;;;;3.80;2.50;;;23.40;39.30;;;;;;5093951;28;20036;-77
2023/06/13 05:17:59;;;;;;;2.63;2.13;;;23.40;39.30;;;;;;5078083;28;20468;-76
2023/06/13 05:20:26;;;;;;;2.90;2.13;;;23.40;39.40;;;;;;5094256;28;20465;-76
2023/06/13 05:22:53;;;;;;;3.63;2.58;;;23.40;39.40;;;;;;5077130;28;20036;-77
2023/06/13 05:25:20;;;;;;;4.05;2.67;;;23.40;39.40;;;;;;5078119;28;20445;-78
2023/06/13 05:27:47;;;;;;;3.17;2.42;;;23.40;39.40;;;;;;5077417;28;20392;-77
2023/06/13 05:30:12;;;;;;;4.07;2.55;;;23.30;39.40;;;;;;5077052;28;20036;-77
2023/06/13 05:32:38;;;;;;;3.85;2.53;;;23.30;39.40;;;;;;5094241;28;20032;-76
2023/06/13 05:35:08;;;;;;;3.67;2.45;;;23.30;39.50;;;;;;5095175;28;20074;-78
2023/06/13 05:37:37;;;;;;;3.17;2.28;;;23.30;39.50;;;;;;5093684;28;20453;-78
2023/06/13 05:40:05;;;;;;;3.60;2.50;;;23.30;39.50;;;;;;5094364;28;20036;-78
2023/06/13 05:42:35;;;;;;;3.42;2.10;;;23.30;39.60;;;;;;5093888;28;20064;-75
2023/06/13 05:45:03;;;;;;;3.15;2.50;;;23.30;39.60;;;;;;5093633;28;20454;-76
2023/06/13 05:47:29;;;;;;;3.53;2.40;;;23.30;39.70;;;;;;5076236;28;20403;-79
2023/06/13 05:49:55;;;;;;;3.15;2.42;;;23.30;39.70;;;;;;5094936;28;20039;-76
2023/06/13 05:52:21;;;;;;;3.28;2.47;;;23.30;39.70;;;;;;5094442;28;20024;-76
2023/06/13 05:54:47;;;;;;;3.55;2.58;;;23.30;39.70;;;;;;5043255;28;20395;-76
2023/06/13 05:57:13;;;;;;;3.63;2.58;;;23.30;39.80;;;;;;5060647;28;20032;-77
2023/06/13 05:59:39;;;;;;;3.30;2.63;;;23.30;39.80;;;;;;5094095;28;20035;-79
2023/06/13 06:02:05;;;;;;;3.60;2.50;;;23.30;39.80;;;;;;5061714;28;20028;-78
2023/06/13 06:04:31;;;;;;;3.50;2.50;;;23.30;39.90;;;;;;5094703;28;20044;-78
2023/06/13 06:06:57;;;;;;;4.00;2.33;;;23.30;39.90;;;;;;5093221;28;20377;-76
2023/06/13 06:09:22;;;;;;;3.85;2.63;;;23.30;39.90;;;;;;5093031;28;20481;-77
2023/06/13 06:11:51;;;;;;;4.10;2.40;;;23.20;39.90;;;;;;5093460;28;20081;-76
2023/06/13 06:14:17;;;;;;;3.70;2.42;;;23.30;40.00;;;;;;5093381;28;20035;-76
2023/06/13 06:16:42;;;;;;;3.17;2.35;;;23.30;40.10;;;;;;5076115;28;20024;-76
2023/06/13 06:19:08;;;;;;;3.80;2.42;;;23.30;40.10;;;;;;5093096;28;20059;-76
2023/06/13 06:21:34;;;;;;;3.35;2.50;;;23.30;40.20;;;;;;5076436;28;20028;-78
2023/06/13 06:24:00;;;;;;;3.10;2.40;;;23.30;40.30;;;;;;5092770;28;20427;-78
2023/06/13 06:26:26;;;;;;;3.42;2.53;;;23.30;40.30;;;;;;5092606;28;20028;-77
2023/06/13 06:28:52;;;;;;;3.65;2.70;;;23.30;40.30;;;;;;5076197;28;20035;-79
2023/06/13 06:31:18;;;;;;;3.65;2.53;;;23.30;40.40;;;;;;5093122;28;20058;-77
2023/06/13 06:33:44;;;;;;;3.65;2.38;;;23.30;40.40;;;;;;5076022;28;20113;-77
2023/06/13 06:36:10;;;;;;;3.50;2.50;;;23.30;40.40;;;;;;5093966;28;20468;-77
2023/06/13 06:38:36;;;;;;;4.57;2.83;;;23.30;40.40;;;;;;5092375;28;20034;-78
2023/06/13 06:41:02;;;;;;;3.38;2.55;;;23.30;40.40;;;;;;5058889;28;20032;-80
2023/06/13 06:43:27;;;;;;;3.90;2.70;;;23.30;40.40;;;;;;5075419;28;20064;-75
2023/06/13 06:45:55;;;;;;;3.42;2.45;;;23.30;40.50;;;;;;5075413;28;20101;-75
2023/06/13 06:48:20;;;;;;;3.45;2.60;;;23.30;40.50;;;;;;5075481;28;20450;-74
2023/06/13 06:50:46;;;;;;;3.67;2.72;;;23.30;40.60;;;;;;5093981;28;20028;-74
2023/06/13 06:53:12;;;;;;;3.83;2.60;;;23.30;40.60;;;;;;5092597;28;20036;-76
2023/06/13 06:55:38;;;;;;;4.57;2.83;;;23.30;40.60;;;;;;5076745;28;20038;-75
2023/06/13 06:58:03;;;;;;;3.97;2.45;;;23.40;40.70;;;;;;5092191;28;20473;-77
2023/06/13 07:00:29;;;;;;;3.40;2.58;;;23.30;40.60;;;;;;5075435;28;20099;-74
2023/06/13 07:02:55;;;;;;;3.60;2.47;;;23.40;40.70;;;;;;5091790;28;20068;-75
2023/06/13 07:05:20;;;;;;;3.58;2.45;;;23.30;40.70;;;;;;5075453;28;20081;-75
2023/06/13 07:07:46;;;;;;;3.15;2.45;;;23.40;40.80;;;;;;5075203;28;20458;-75
2023/06/13 07:10:12;;;;;;;3.30;2.30;;;23.40;40.80;;;;;;5091957;28;20028;-74
2023/06/13 07:12:39;;;;;;;3.05;2.28;;;23.40;40.80;;;;;;5093218;28;20074;-76
2023/06/13 07:15:06;;;;;;;3.80;2.50;;;23.40;40.90;;;;;;5058445;28;20039;-75
2023/06/13 07:17:31;;;;;;;4.25;2.60;;;23.40;40.90;;;;;;5058538;28;20024;-75
2023/06/13 07:19:57;;;;;;;4.15;2.30;;;23.50;40.90;;;;;;5093666;28;20028;-74
2023/06/13 07:22:23;;;;;;;3.03;2.28;;;23.50;41.00;;;;;;5075085;28;20032;-76
2023/06/13 07:24:49;;;;;;;3.15;2.40;;;23.50;40.90;;;;;;5075762;28;20364;-75
2023/06/13 07:27:18;;;;;;;3.22;2.30;;;23.60;40.90;;;;;;5075727;28;20047;-74
2023/06/13 07:29:44;;;;;;;3.15;2.20;;;23.60;40.90;;;;;;5075030;28;20131;-75
2023/06/13 07:32:10;;;;;;;3.08;2.30;;;23.60;40.90;;;;;;5091755;28;20036;-74
2023/06/13 07:34:35;;;;;;;3.13;2.45;;;23.60;40.80;;;;;;5091991;28;20500;-75
2023/06/13 07:37:03;;;;;;;3.30;2.42;;;23.70;40.80;;;;;;5058827;28;20487;-74
2023/06/13 07:39:29;;;;;;;2.83;2.28;;;23.80;40.80;;;;;;5094182;28;20039;-74
2023/06/13 07:41:55;;;;;;;3.30;2.45;;;23.80;40.70;;;;;;5093069;28;20277;-75
2023/06/13 07:44:24;;;;;;;2.80;2.20;;;23.80;40.60;;;;;;5093647;28;20048;-74
2023/06/13 07:46:50;;;;;;;3.10;2.33;;;23.90;40.60;;;;;;5092018;28;20052;-75
2023/06/13 07:49:16;;;;;;;3.75;2.40;;;24.00;40.60;;;;;;5074938;28;20040;-74
2023/06/13 07:51:43;;;;;;;3.28;2.45;;;24.10;40.60;;;;;;5074811;28;20032;-74
2023/06/13 07:54:09;;;;;;;3.25;2.40;;;24.10;40.60;;;;;;5092162;28;20055;-76
2023/06/13 07:56:35;;;;;;;3.63;2.08;;;24.20;40.50;;;;;;5074876;28;20032;-74
2023/06/13 07:59:01;;;;;;;2.65;2.00;;;24.20;40.50;;;;;;5058151;28;20028;-73
2023/06/13 08:01:27;;;;;;;3.17;2.53;;;24.30;40.50;;;;;;5058315;28;20031;-75
2023/06/13 08:03:52;;;;;;;3.38;2.58;;;24.40;40.50;;;;;;5074990;28;20390;-77
2023/06/13 08:06:18;;;;;;;3.17;2.13;;;24.40;40.40;;;;;;5074571;28;20111;-75
2023/06/13 08:08:44;;;;;;;2.80;2.15;;;24.50;40.30;;;;;;5075289;28;20047;-75
2023/06/13 08:11:10;;;;;;;3.35;2.15;;;24.60;40.30;;;;;;5093695;28;20028;-73
2023/06/13 08:13:36;;;;;;;2.28;1.88;;;24.70;40.30;;;;;;5096768;28;20140;-74
2023/06/13 08:16:02;;;;;;;2.92;2.35;;;24.70;40.30;;;;;;5061458;28;20142;-74
2023/06/13 08:18:27;;;;;;;3.10;2.50;;;24.80;40.30;;;;;;5095981;28;20063;-74
2023/06/13 08:20:53;;;;;;;3.75;2.70;;;24.80;40.20;;;;;;5078739;28;20075;-74
2023/06/13 08:23:19;;;;;;;2.88;2.20;;;24.90;40.20;;;;;;5095158;28;20032;-75
2023/06/13 08:25:45;;;;;;;3.60;2.13;;;25.00;40.20;;;;;;5094904;28;20036;-75
2023/06/13 08:28:11;;;;;;;3.38;2.30;;;25.10;40.20;;;;;;5078035;28;20123;-76
2023/06/13 08:30:37;;;;;;;2.83;2.20;;;25.20;40.20;;;;;;5095483;28;20132;-75
2023/06/13 08:33:03;;;;;;;3.88;2.28;;;25.20;40.10;;;;;;5077699;28;20024;-75
2023/06/13 08:35:30;;;;;;;3.40;2.28;;;25.30;40.10;;;;;;5078258;28;20074;-74
2023/06/13 08:37:57;;;;;;;3.40;2.30;;;25.40;40.10;;;;;;5094519;28;20059;-75
2023/06/13 08:40:23;;;;;;;3.00;2.30;;;25.50;40.10;;;;;;5094710;28;20040;-74
2023/06/13 08:42:49;;;;;;;2.97;2.20;;;25.50;40.00;;;;;;5078423;28;20126;-75
2023/06/13 08:45:15;;;;;;;3.10;2.40;;;25.60;40.00;;;;;;5094803;28;20055;-74
2023/06/13 08:47:46;;;;;;;3.85;2.80;;;25.70;40.00;;;;;;5078087;28;20044;-75
2023/06/13 08:50:13;;;;;;;3.05;2.08;;;25.80;40.10;;;;;;5062582;28;20054;-74
2023/06/13 08:52:40;;;;;;;3.70;2.47;;;25.90;40.00;;;;;;5060767;28;20032;-76
2023/06/13 08:55:15;;;;;;;3.60;2.35;;;26.00;40.00;;;;;;5094392;28;20066;-75
2023/06/13 08:57:45;;;;;;;5.13;2.55;;;26.10;40.00;;;;;;5094559;28;20040;-73
2023/06/13 09:00:13;;;;;;;3.65;2.60;;;26.10;39.90;;;;;;5094535;28;20034;-74
2023/06/13 09:02:43;;;;;;;3.63;2.60;;;26.20;39.90;;;;;;5077296;28;20092;-75
2023/06/13 09:05:16;;;;;;;2.90;2.13;;;26.30;39.90;;;;;;5095195;28;20082;-74
2023/06/13 09:07:43;;;;;;;3.45;2.33;;;26.40;39.90;;;;;;5093975;28;20042;-76
2023/06/13 09:10:12;;;;;;;3.00;2.20;;;26.50;39.80;;;;;;5094169;28;20118;-76
2023/06/13 09:12:43;;;;;;;3.35;2.17;;;26.60;39.80;;;;;;5077900;28;20529;-77
2023/06/13 09:15:10;;;;;;;2.65;2.20;;;26.70;39.80;;;;;;5077867;28;20028;-78
2023/06/13 09:17:36;;;;;;;3.15;2.33;;;26.70;39.60;;;;;;5093692;28;20032;-78
2023/06/13 09:20:05;;;;;;;2.72;2.25;;;26.80;39.60;;;;;;5093947;28;20028;-80
2023/06/13 09:22:33;;;;;;;2.97;2.40;;;26.90;39.60;;;;;;5093207;28;20036;-76
2023/06/13 09:25:00;;;;;;;3.35;2.28;;;27.00;39.60;;;;;;5094192;28;20051;-77
2023/06/13 09:27:27;;;;;;;3.35;2.20;;;27.10;39.60;;;;;;5093498;28;20040;-76
2023/06/13 09:29:53;;;;;;;3.38;2.42;;;27.20;39.60;;;;;;5093845;28;20024;-75
2023/06/13 09:32:22;;;;;;;3.00;2.25;;;27.30;39.60;;;;;;5093192;28;20529;-76
2023/06/13 09:34:49;;;;;;;3.45;2.47;;;27.40;39.60;;;;;;5094524;28;20039;-76
2023/06/13 09:37:15;;;;;;;3.00;2.15;;;27.40;39.40;;;;;;5095217;28;20468;-76
2023/06/13 09:39:50;;;;;;;2.92;2.08;;;27.50;39.40;;;;;;5094068;28;20032;-77
2023/06/13 09:42:21;;;;;;;3.15;2.40;;;27.70;39.50;;;;;;5076922;28;20028;-76
2023/06/13 09:44:51;;;;;;;2.97;2.08;;;27.70;39.40;;;;;;5094932;28;20032;-76
2023/06/13 09:47:22;;;;;;;3.13;2.25;;;27.80;39.30;;;;;;5044357;28;20040;-76
2023/06/13 09:49:56;;;;;;;2.58;1.90;;;27.90;39.30;;;;;;5093746;28;20039;-77
2023/06/13 09:52:24;;;;;;;3.10;2.10;;;28.00;39.30;;;;;;5076540;28;20092;-77
2023/06/13 09:54:53;;;;;;;2.58;1.83;;;28.10;39.20;;;;;;5076223;28;20097;-77
2023/06/13 09:57:21;;;;;;;2.80;2.17;;;28.20;39.20;;;;;;5093410;28;20032;-76
2023/06/13 09:59:47;;;;;;;2.80;2.13;;;28.30;39.10;;;;;;5094597;28;20376;-76
2023/06/13 10:02:16;;;;;;;2.72;2.10;;;28.30;39.00;;;;;;5093292;28;20062;-76
2023/06/13 10:04:41;;;;;;;3.08;2.08;;;28.40;38.90;;;;;;5076359;28;20028;-79
2023/06/13 10:07:07;;;;;;;2.58;2.00;;;28.50;38.90;;;;;;5059607;28;20040;-76
2023/06/13 10:09:33;;;;;;;2.55;2.08;;;28.60;38.90;;;;;;5075962;28;20122;-76
2023/06/13 10:12:00;;;;;;;3.00;2.15;;;28.60;38.80;;;;;;5093349;28;20115;-76
2023/06/13 10:14:27;;;;;;;2.80;2.08;;;28.70;38.80;;;;;;5076138;28;20028;-77
2023/06/13 10:17:08;;;;;;;3.58;2.40;;;28.80;38.80;;;;;;5094465;28;20479;-77
2023/06/13 10:19:37;;;;;;;2.33;1.90;;;28.90;38.80;;;;;;5096609;28;20057;-77
2023/06/13 10:22:05;;;;;;;2.67;2.10;;;29.00;38.70;;;;;;5080603;28;20031;-77
2023/06/13 10:24:34;;;;;;;3.13;2.17;;;29.10;38.70;;;;;;5096704;28;20040;-77
2023/06/13 10:27:02;;;;;;;2.33;2.10;;;29.10;38.60;;;;;;5077342;28;20043;-76
2023/06/13 10:29:50;;;;;;;3.50;1.88;;;29.20;38.60;;;;;;5093172;28;20082;-77
2023/06/13 10:33:06;;;;;;;2.60;2.00;;;29.30;38.50;;;;;;5093230;28;20024;-77
2023/06/13 10:35:32;;;;;;;2.00;1.80;;;29.40;38.40;;;;;;5075494;28;20149;-77
2023/06/13 10:38:19;;;;;;;2.70;2.05;;;29.50;38.30;;;;;;5092577;28;20040;-77
2023/06/13 10:41:23;;;;;;;2.00;1.70;;;29.60;38.30;;;;;;5092693;28;20059;-76
2023/06/13 10:43:55;;;;;;;2.90;2.20;;;29.60;38.20;;;;;;5075521;28;20032;-76
2023/06/13 10:46:21;;;;;;;3.03;2.15;;;29.70;38.10;;;;;;5094158;28;20044;-76
2023/06/13 10:48:49;;;;;;;3.22;2.30;;;29.80;38.10;;;;;;5092662;28;20039;-76
2023/06/13 10:51:22;;;;;;;3.25;2.17;;;29.90;38.10;;;;;;5075867;28;20151;-76
2023/06/13 10:54:03;;;;;;;3.10;2.27;;;30.00;38.10;;;;;;5059137;28;20058;-77
2023/06/13 10:56:34;;;;;;;2.90;1.73;;;30.00;38.10;;;;;;5093600;28;20361;-76
2023/06/13 10:59:15;;;;;;;2.88;2.15;;;30.10;38.00;;;;;;5092616;28;20111;-77
2023/06/13 11:01:44;;;;;;;2.08;1.88;;;30.10;38.00;;;;;;5093489;28;20039;-77
2023/06/13 11:04:14;;;;;;;2.63;2.00;;;30.20;38.00;;;;;;5092305;28;20040;-76
2023/06/13 11:06:43;;;;;;;3.15;2.20;;;30.20;38.00;;;;;;5092439;28;20020;-77
2023/06/13 11:09:20;;;;;;;2.20;2.00;;;30.40;38.10;;;;;;5075676;28;20456;-77
2023/06/13 11:11:57;;;;;;;2.75;2.03;;;30.40;38.10;;;;;;5093190;28;20034;-77
2023/06/13 11:14:25;;;;;;;2.55;2.13;;;30.40;38.10;;;;;;5092504;28;20032;-76
2023/06/13 11:16:52;;;;;;;2.60;2.00;;;30.50;38.10;;;;;;5092216;28;20032;-77
2023/06/13 11:19:27;;;;;;;3.80;2.28;;;30.50;38.10;;;;;;5091889;28;20032;-77
2023/06/13 11:21:59;;;;;;;2.95;2.47;;;30.50;38.10;;;;;;5093160;28;20051;-78
2023/06/13 11:24:29;;;;;;;2.72;2.22;;;30.60;38.10;;;;;;5092049;28;20036;-77
2023/06/13 11:26:57;;;;;;;2.63;2.15;;;30.50;38.00;;;;;;5092732;28;20048;-78
2023/06/13 11:29:23;;;;;;;2.70;1.90;;;30.60;38.10;;;;;;5092511;28;20021;-78
2023/06/13 11:31:54;;;;;;;3.05;2.22;;;30.60;38.10;;;;;;5075410;28;20025;-78
2023/06/13 11:34:28;;;;;;;2.88;2.33;;;30.60;38.00;;;;;;5075129;28;20032;-77
2023/06/13 11:36:59;;;;;;;4.10;2.38;;;30.60;38.00;;;;;;5091751;28;20099;-77
2023/06/13 11:39:30;;;;;;;2.85;1.98;;;30.60;37.90;;;;;;5092253;28;20055;-77
2023/06/13 11:41:57;;;;;;;2.65;2.28;;;30.70;37.90;;;;;;5092702;28;20442;-78
2023/06/13 11:44:23;;;;;;;4.65;2.55;;;30.70;37.90;;;;;;5075760;28;20033;-77
2023/06/13 11:46:50;;;;;;;4.55;2.60;;;30.70;38.00;;;;;;5078317;28;20548;-76
2023/06/13 11:49:16;;;;;;;3.05;2.30;;;30.70;38.00;;;;;;5079018;28;20040;-78
2023/06/13 11:51:43;;;;;;;3.00;2.40;;;30.70;38.00;;;;;;5095600;28;20024;-77
2023/06/13 11:54:11;;;;;;;3.35;2.33;;;30.70;38.10;;;;;;5062168;28;20072;-77
2023/06/13 11:56:40;;;;;;;3.35;2.17;;;30.70;38.10;;;;;;5095663;28;20020;-77
2023/06/13 11:59:20;;;;;;;3.55;2.22;;;30.70;38.10;;;;;;5096031;28;20123;-77
2023/06/13 12:01:52;;;;;;;3.20;2.50;;;30.70;38.00;;;;;;5095535;28;20035;-77
2023/06/13 12:04:25;;;;;;;3.20;2.50;;;30.70;37.80;;;;;;5095761;28;20051;-78
2023/06/13 12:06:52;;;;;;;2.97;2.35;;;30.70;37.70;;;;;;5096763;28;20035;-76
2023/06/13 12:09:18;;;;;;;2.78;2.30;;;30.70;37.80;;;;;;5062010;28;20028;-77
2023/06/13 12:11:45;;;;;;;3.00;2.33;;;30.70;37.80;;;;;;5062002;28;20081;-76
2023/06/13 12:14:11;;;;;;;2.83;2.22;;;30.70;37.70;;;;;;5095357;28;20064;-77
2023/06/13 12:16:38;;;;;;;2.90;2.22;;;30.70;37.70;;;;;;5078668;28;20042;-77
2023/06/13 12:19:06;;;;;;;3.55;2.40;;;30.70;37.60;;;;;;5061891;28;20035;-76
2023/06/13 12:21:33;;;;;;;3.15;2.50;;;30.70;37.60;;;;;;5079157;28;20489;-78
2023/06/13 12:24:07;;;;;;;3.08;2.30;;;30.70;37.60;;;;;;5095447;28;20044;-76
2023/06/13 12:26:35;;;;;;;3.83;2.33;;;30.70;37.70;;;;;;5095463;28;20115;-77
2023/06/13 12:29:08;;;;;;;3.80;2.20;;;30.70;37.70;;;;;;5096182;28;20020;-77
2023/06/13 12:31:38;;;;;;;3.28;2.05;;;30.70;37.70;;;;;;5096894;28;20055;-77
2023/06/13 12:34:29;;;;;;;2.72;2.10;;;30.70;37.70;;;;;;5094835;28;20042;-78
2023/06/13 12:37:03;;;;;;;2.85;2.08;;;30.70;37.70;;;;;;5079111;28;20097;-78
2023/06/13 12:39:30;;;;;;;3.13;2.38;;;30.70;37.60;;;;;;5078256;28;20025;-77
2023/06/13 12:42:01;;;;;;;2.63;1.98;;;30.70;37.60;;;;;;5095300;28;20035;-78
2023/06/13 12:44:30;;;;;;;3.95;2.28;;;30.60;37.50;;;;;;5077845;28;20112;-78
2023/06/13 12:46:59;;;;;;;2.65;2.15;;;30.70;37.50;;;;;;5094838;28;20060;-78
2023/06/13 12:49:25;;;;;;;2.80;2.35;;;30.70;37.50;;;;;;5095360;28;20028;-78
2023/06/13 12:51:53;;;;;;;3.33;2.35;;;30.70;37.40;;;;;;5061222;28;20043;-77
2023/06/13 12:54:23;;;;;;;3.80;2.40;;;30.70;37.40;;;;;;5078074;28;20119;-76